sensor_id;sensor_type;location;lat;lon;timestamp;P1;durP1;ratioP1;P2;durP2;ratioP2
68479;SDS011;55469;48.934;12.050;2022-10-16T00:01:29;0.70;;;0.70;;
68479;SDS011;55469;48.934;12.050;2022-10-16T00:03:56;0.70;;;0.70;;
68479;SDS011;55469;48.934;12.050;2022-10-16T00:06:24;0.60;;;0.60;;
68479;SDS011;55469;48.934;12.050;2022-10-16T00:08:51;0.68;;;0.68;;
68479;SDS011;55469;48.934;12.050;2022-10-16T00:11:19;0.60;;;0.60;;
68479;SDS011;55469;48.934;12.050;2022-10-16T00:13:58;0.60;;;0.60;;
68479;SDS011;55469;48.934;12.050;2022-10-16T00:16:26;0.70;;;0.70;;
68479;SDS011;55469;48.934;12.050;2022-10-16T00:18:53;0.60;;;0.60;;
68479;SDS011;55469;48.934;12.050;2022-10-16T00:21:21;0.60;;;0.60;;
68479;SDS011;55469;48.934;12.050;2022-10-16T00:23:50;0.70;;;0.70;;
68479;SDS011;55469;48.934;12.050;2022-10-16T00:26:18;0.70;;;0.70;;
68479;SDS011;55469;48.934;12.050;2022-10-16T00:28:48;0.63;;;0.63;;
68479;SDS011;55469;48.934;12.050;2022-10-16T00:31:15;0.80;;;0.80;;
68479;SDS011;55469;48.934;12.050;2022-10-16T00:33:43;0.50;;;0.50;;
68479;SDS011;55469;48.934;12.050;2022-10-16T00:36:12;0.60;;;0.60;;
68479;SDS011;55469;48.934;12.050;2022-10-16T00:38:41;0.50;;;0.50;;
68479;SDS011;55469;48.934;12.050;2022-10-16T00:41:07;0.82;;;0.60;;
68479;SDS011;55469;48.934;12.050;2022-10-16T00:43:44;0.65;;;0.65;;
68479;SDS011;55469;48.934;12.050;2022-10-16T00:51:40;0.63;;;0.63;;
68479;SDS011;55469;48.934;12.050;2022-10-16T00:54:18;0.90;;;0.60;;
68479;SDS011;55469;48.934;12.050;2022-10-16T00:59:39;0.63;;;0.63;;
68479;SDS011;55469;48.934;12.050;2022-10-16T01:02:07;0.73;;;0.70;;
68479;SDS011;55469;48.934;12.050;2022-10-16T01:04:40;0.60;;;0.60;;
68479;SDS011;55469;48.934;12.050;2022-10-16T01:09:52;0.60;;;0.60;;
68479;SDS011;55469;48.934;12.050;2022-10-16T01:15:14;0.63;;;0.63;;
68479;SDS011;55469;48.934;12.050;2022-10-16T01:18:05;0.63;;;0.63;;
68479;SDS011;55469;48.934;12.050;2022-10-16T01:32:25;1.05;;;0.80;;
68479;SDS011;55469;48.934;12.050;2022-10-16T01:35:11;0.68;;;0.68;;
68479;SDS011;55469;48.934;12.050;2022-10-16T01:37:50;0.60;;;0.60;;
68479;SDS011;55469;48.934;12.050;2022-10-16T01:40:24;0.80;;;0.80;;
68479;SDS011;55469;48.934;12.050;2022-10-16T01:42:53;0.70;;;0.70;;
68479;SDS011;55469;48.934;12.050;2022-10-16T01:45:25;0.70;;;0.70;;
68479;SDS011;55469;48.934;12.050;2022-10-16T01:47:54;1.10;;;0.70;;
68479;SDS011;55469;48.934;12.050;2022-10-16T01:50:21;1.40;;;0.80;;
68479;SDS011;55469;48.934;12.050;2022-10-16T01:52:50;0.70;;;0.70;;
68479;SDS011;55469;48.934;12.050;2022-10-16T01:55:20;0.60;;;0.60;;
68479;SDS011;55469;48.934;12.050;2022-10-16T01:57:53;1.00;;;0.90;;
68479;SDS011;55469;48.934;12.050;2022-10-16T02:00:20;0.70;;;0.70;;
68479;SDS011;55469;48.934;12.050;2022-10-16T02:02:51;0.63;;;0.63;;
68479;SDS011;55469;48.934;12.050;2022-10-16T02:05:27;0.70;;;0.70;;
68479;SDS011;55469;48.934;12.050;2022-10-16T02:07:57;0.73;;;0.73;;
68479;SDS011;55469;48.934;12.050;2022-10-16T02:10:24;0.60;;;0.60;;
68479;SDS011;55469;48.934;12.050;2022-10-16T02:12:53;0.60;;;0.60;;
68479;SDS011;55469;48.934;12.050;2022-10-16T02:18:04;0.70;;;0.70;;
68479;SDS011;55469;48.934;12.050;2022-10-16T02:20:55;0.70;;;0.70;;
68479;SDS011;55469;48.934;12.050;2022-10-16T02:29:05;0.82;;;0.80;;
68479;SDS011;55469;48.934;12.050;2022-10-16T02:31:38;0.60;;;0.60;;
68479;SDS011;55469;48.934;12.050;2022-10-16T02:34:09;0.60;;;0.60;;
68479;SDS011;55469;48.934;12.050;2022-10-16T02:36:36;0.70;;;0.70;;
68479;SDS011;55469;48.934;12.050;2022-10-16T02:39:04;0.70;;;0.70;;
68479;SDS011;55469;48.934;12.050;2022-10-16T02:41:31;0.57;;;0.57;;
68479;SDS011;55469;48.934;12.050;2022-10-16T02:44:02;0.70;;;0.70;;
68479;SDS011;55469;48.934;12.050;2022-10-16T02:46:28;0.70;;;0.70;;
68479;SDS011;55469;48.934;12.050;2022-10-16T02:48:53;0.60;;;0.60;;
68479;SDS011;55469;48.934;12.050;2022-10-16T02:51:19;0.70;;;0.70;;
68479;SDS011;55469;48.934;12.050;2022-10-16T02:53:45;0.80;;;0.80;;
68479;SDS011;55469;48.934;12.050;2022-10-16T02:56:17;0.60;;;0.60;;
68479;SDS011;55469;48.934;12.050;2022-10-16T02:58:43;0.70;;;0.70;;
68479;SDS011;55469;48.934;12.050;2022-10-16T03:01:08;0.63;;;0.63;;
68479;SDS011;55469;48.934;12.050;2022-10-16T03:03:34;0.60;;;0.60;;
68479;SDS011;55469;48.934;12.050;2022-10-16T03:06:00;0.60;;;0.60;;
68479;SDS011;55469;48.934;12.050;2022-10-16T03:08:26;0.70;;;0.70;;
68479;SDS011;55469;48.934;12.050;2022-10-16T03:10:53;0.73;;;0.73;;
68479;SDS011;55469;48.934;12.050;2022-10-16T03:13:19;0.70;;;0.70;;
68479;SDS011;55469;48.934;12.050;2022-10-16T03:15:45;0.70;;;0.70;;
68479;SDS011;55469;48.934;12.050;2022-10-16T03:18:26;0.60;;;0.60;;
68479;SDS011;55469;48.934;12.050;2022-10-16T03:20:51;0.80;;;0.80;;
68479;SDS011;55469;48.934;12.050;2022-10-16T03:23:17;0.90;;;0.90;;
68479;SDS011;55469;48.934;12.050;2022-10-16T03:25:43;0.70;;;0.70;;
68479;SDS011;55469;48.934;12.050;2022-10-16T03:28:08;0.70;;;0.70;;
68479;SDS011;55469;48.934;12.050;2022-10-16T03:30:34;1.05;;;0.90;;
68479;SDS011;55469;48.934;12.050;2022-10-16T03:33:00;0.70;;;0.70;;
68479;SDS011;55469;48.934;12.050;2022-10-16T03:35:28;0.60;;;0.60;;
68479;SDS011;55469;48.934;12.050;2022-10-16T03:37:57;0.63;;;0.63;;
68479;SDS011;55469;48.934;12.050;2022-10-16T03:40:23;0.70;;;0.70;;
68479;SDS011;55469;48.934;12.050;2022-10-16T03:42:49;0.85;;;0.68;;
68479;SDS011;55469;48.934;12.050;2022-10-16T03:45:15;0.68;;;0.68;;
68479;SDS011;55469;48.934;12.050;2022-10-16T03:47:40;0.60;;;0.60;;
68479;SDS011;55469;48.934;12.050;2022-10-16T03:50:06;0.60;;;0.60;;
68479;SDS011;55469;48.934;12.050;2022-10-16T03:52:33;0.70;;;0.70;;
68479;SDS011;55469;48.934;12.050;2022-10-16T03:54:59;0.93;;;0.68;;
68479;SDS011;55469;48.934;12.050;2022-10-16T03:57:25;0.70;;;0.70;;
68479;SDS011;55469;48.934;12.050;2022-10-16T03:59:50;0.70;;;0.70;;
68479;SDS011;55469;48.934;12.050;2022-10-16T04:02:16;0.60;;;0.60;;
68479;SDS011;55469;48.934;12.050;2022-10-16T04:04:42;0.70;;;0.70;;
68479;SDS011;55469;48.934;12.050;2022-10-16T04:07:08;0.70;;;0.70;;
68479;SDS011;55469;48.934;12.050;2022-10-16T04:09:33;0.70;;;0.70;;
68479;SDS011;55469;48.934;12.050;2022-10-16T04:11:59;0.70;;;0.70;;
68479;SDS011;55469;48.934;12.050;2022-10-16T04:14:25;0.70;;;0.70;;
68479;SDS011;55469;48.934;12.050;2022-10-16T04:16:50;0.90;;;0.70;;
68479;SDS011;55469;48.934;12.050;2022-10-16T04:19:16;0.70;;;0.60;;
68479;SDS011;55469;48.934;12.050;2022-10-16T04:21:42;0.95;;;0.80;;
68479;SDS011;55469;48.934;12.050;2022-10-16T04:24:08;0.70;;;0.70;;
68479;SDS011;55469;48.934;12.050;2022-10-16T04:26:33;0.68;;;0.68;;
68479;SDS011;55469;48.934;12.050;2022-10-16T04:28:59;0.65;;;0.65;;
68479;SDS011;55469;48.934;12.050;2022-10-16T04:31:25;0.80;;;0.80;;
68479;SDS011;55469;48.934;12.050;2022-10-16T04:33:50;0.70;;;0.70;;
68479;SDS011;55469;48.934;12.050;2022-10-16T04:36:16;0.70;;;0.70;;
68479;SDS011;55469;48.934;12.050;2022-10-16T04:38:42;1.20;;;0.85;;
68479;SDS011;55469;48.934;12.050;2022-10-16T04:41:07;0.90;;;0.75;;
68479;SDS011;55469;48.934;12.050;2022-10-16T04:43:33;0.80;;;0.80;;
68479;SDS011;55469;48.934;12.050;2022-10-16T04:45:59;0.77;;;0.77;;
68479;SDS011;55469;48.934;12.050;2022-10-16T04:48:25;0.60;;;0.60;;
68479;SDS011;55469;48.934;12.050;2022-10-16T04:50:51;0.75;;;0.70;;
68479;SDS011;55469;48.934;12.050;2022-10-16T04:53:17;0.70;;;0.70;;
68479;SDS011;55469;48.934;12.050;2022-10-16T04:55:43;0.70;;;0.70;;
68479;SDS011;55469;48.934;12.050;2022-10-16T04:58:09;0.80;;;0.75;;
68479;SDS011;55469;48.934;12.050;2022-10-16T05:00:35;0.77;;;0.77;;
68479;SDS011;55469;48.934;12.050;2022-10-16T05:03:04;0.80;;;0.80;;
68479;SDS011;55469;48.934;12.050;2022-10-16T05:05:33;0.73;;;0.73;;
68479;SDS011;55469;48.934;12.050;2022-10-16T05:08:00;0.68;;;0.68;;
68479;SDS011;55469;48.934;12.050;2022-10-16T05:10:26;0.80;;;0.80;;
68479;SDS011;55469;48.934;12.050;2022-10-16T05:12:52;0.70;;;0.70;;
68479;SDS011;55469;48.934;12.050;2022-10-16T05:15:18;0.75;;;0.75;;
68479;SDS011;55469;48.934;12.050;2022-10-16T05:17:44;0.90;;;0.90;;
68479;SDS011;55469;48.934;12.050;2022-10-16T05:20:11;0.77;;;0.77;;
68479;SDS011;55469;48.934;12.050;2022-10-16T05:22:37;0.80;;;0.80;;
68479;SDS011;55469;48.934;12.050;2022-10-16T05:25:03;0.80;;;0.80;;
68479;SDS011;55469;48.934;12.050;2022-10-16T05:27:29;0.70;;;0.70;;
68479;SDS011;55469;48.934;12.050;2022-10-16T05:29:55;0.65;;;0.65;;
68479;SDS011;55469;48.934;12.050;2022-10-16T05:32:20;0.70;;;0.70;;
68479;SDS011;55469;48.934;12.050;2022-10-16T05:34:46;0.73;;;0.73;;
68479;SDS011;55469;48.934;12.050;2022-10-16T05:37:12;0.80;;;0.80;;
68479;SDS011;55469;48.934;12.050;2022-10-16T05:39:38;0.88;;;0.88;;
68479;SDS011;55469;48.934;12.050;2022-10-16T05:42:04;0.80;;;0.80;;
68479;SDS011;55469;48.934;12.050;2022-10-16T05:44:31;0.77;;;0.77;;
68479;SDS011;55469;48.934;12.050;2022-10-16T05:46:57;0.70;;;0.70;;
68479;SDS011;55469;48.934;12.050;2022-10-16T05:49:23;0.70;;;0.70;;
68479;SDS011;55469;48.934;12.050;2022-10-16T05:51:49;0.93;;;0.90;;
68479;SDS011;55469;48.934;12.050;2022-10-16T05:54:14;0.80;;;0.80;;
68479;SDS011;55469;48.934;12.050;2022-10-16T05:56:40;0.70;;;0.70;;
68479;SDS011;55469;48.934;12.050;2022-10-16T05:59:06;0.93;;;0.93;;
68479;SDS011;55469;48.934;12.050;2022-10-16T06:01:34;0.80;;;0.80;;
68479;SDS011;55469;48.934;12.050;2022-10-16T06:04:00;0.80;;;0.80;;
68479;SDS011;55469;48.934;12.050;2022-10-16T06:06:27;0.80;;;0.80;;
68479;SDS011;55469;48.934;12.050;2022-10-16T06:08:54;0.80;;;0.70;;
68479;SDS011;55469;48.934;12.050;2022-10-16T06:11:25;0.70;;;0.70;;
68479;SDS011;55469;48.934;12.050;2022-10-16T06:13:55;0.80;;;0.80;;
68479;SDS011;55469;48.934;12.050;2022-10-16T06:16:23;0.80;;;0.80;;
68479;SDS011;55469;48.934;12.050;2022-10-16T06:18:50;0.80;;;0.80;;
68479;SDS011;55469;48.934;12.050;2022-10-16T06:21:25;0.70;;;0.70;;
68479;SDS011;55469;48.934;12.050;2022-10-16T06:23:53;1.02;;;0.93;;
68479;SDS011;55469;48.934;12.050;2022-10-16T06:26:22;1.00;;;0.77;;
68479;SDS011;55469;48.934;12.050;2022-10-16T06:28:51;0.60;;;0.60;;
68479;SDS011;55469;48.934;12.050;2022-10-16T06:31:19;0.70;;;0.70;;
68479;SDS011;55469;48.934;12.050;2022-10-16T06:33:44;0.95;;;0.90;;
68479;SDS011;55469;48.934;12.050;2022-10-16T06:36:13;0.70;;;0.70;;
68479;SDS011;55469;48.934;12.050;2022-10-16T06:38:42;0.80;;;0.80;;
68479;SDS011;55469;48.934;12.050;2022-10-16T06:41:09;0.60;;;0.60;;
68479;SDS011;55469;48.934;12.050;2022-10-16T06:43:39;0.80;;;0.80;;
68479;SDS011;55469;48.934;12.050;2022-10-16T06:46:05;0.70;;;0.70;;
68479;SDS011;55469;48.934;12.050;2022-10-16T06:48:34;0.80;;;0.80;;
68479;SDS011;55469;48.934;12.050;2022-10-16T06:51:02;0.70;;;0.70;;
68479;SDS011;55469;48.934;12.050;2022-10-16T06:53:35;0.80;;;0.80;;
68479;SDS011;55469;48.934;12.050;2022-10-16T06:56:11;0.60;;;0.60;;
68479;SDS011;55469;48.934;12.050;2022-10-16T06:58:39;0.70;;;0.70;;
68479;SDS011;55469;48.934;12.050;2022-10-16T07:01:06;0.77;;;0.77;;
68479;SDS011;55469;48.934;12.050;2022-10-16T07:03:32;0.82;;;0.82;;
68479;SDS011;55469;48.934;12.050;2022-10-16T07:06:01;0.85;;;0.85;;
68479;SDS011;55469;48.934;12.050;2022-10-16T07:08:36;0.73;;;0.70;;
68479;SDS011;55469;48.934;12.050;2022-10-16T07:11:05;0.93;;;0.93;;
68479;SDS011;55469;48.934;12.050;2022-10-16T07:13:37;0.80;;;0.80;;
68479;SDS011;55469;48.934;12.050;2022-10-16T07:16:09;0.77;;;0.77;;
68479;SDS011;55469;48.934;12.050;2022-10-16T07:18:40;0.80;;;0.80;;
68479;SDS011;55469;48.934;12.050;2022-10-16T07:21:10;0.90;;;0.90;;
68479;SDS011;55469;48.934;12.050;2022-10-16T07:23:37;0.90;;;0.90;;
68479;SDS011;55469;48.934;12.050;2022-10-16T07:26:04;0.90;;;0.90;;
68479;SDS011;55469;48.934;12.050;2022-10-16T07:28:31;1.35;;;1.05;;
68479;SDS011;55469;48.934;12.050;2022-10-16T07:31:01;0.80;;;0.80;;
68479;SDS011;55469;48.934;12.050;2022-10-16T07:33:29;0.80;;;0.80;;
68479;SDS011;55469;48.934;12.050;2022-10-16T07:35:56;0.80;;;0.80;;
68479;SDS011;55469;48.934;12.050;2022-10-16T07:38:22;0.80;;;0.80;;
68479;SDS011;55469;48.934;12.050;2022-10-16T07:40:55;0.80;;;0.80;;
68479;SDS011;55469;48.934;12.050;2022-10-16T07:43:32;0.80;;;0.80;;
68479;SDS011;55469;48.934;12.050;2022-10-16T07:45:58;0.80;;;0.80;;
68479;SDS011;55469;48.934;12.050;2022-10-16T07:48:26;0.80;;;0.80;;
68479;SDS011;55469;48.934;12.050;2022-10-16T07:50:59;1.05;;;0.90;;
68479;SDS011;55469;48.934;12.050;2022-10-16T07:53:28;0.80;;;0.80;;
68479;SDS011;55469;48.934;12.050;2022-10-16T07:56:01;0.75;;;0.75;;
68479;SDS011;55469;48.934;12.050;2022-10-16T07:58:30;0.80;;;0.80;;
68479;SDS011;55469;48.934;12.050;2022-10-16T08:00:56;0.80;;;0.80;;
68479;SDS011;55469;48.934;12.050;2022-10-16T08:03:23;0.90;;;0.90;;
68479;SDS011;55469;48.934;12.050;2022-10-16T08:05:50;0.80;;;0.80;;
68479;SDS011;55469;48.934;12.050;2022-10-16T08:08:16;0.70;;;0.70;;
68479;SDS011;55469;48.934;12.050;2022-10-16T08:10:43;0.90;;;0.70;;
68479;SDS011;55469;48.934;12.050;2022-10-16T08:13:10;0.90;;;0.90;;
68479;SDS011;55469;48.934;12.050;2022-10-16T08:15:36;1.00;;;1.00;;
68479;SDS011;55469;48.934;12.050;2022-10-16T08:18:03;0.70;;;0.70;;
68479;SDS011;55469;48.934;12.050;2022-10-16T08:20:30;0.80;;;0.80;;
68479;SDS011;55469;48.934;12.050;2022-10-16T08:22:58;0.80;;;0.75;;
68479;SDS011;55469;48.934;12.050;2022-10-16T08:25:25;0.95;;;0.95;;
68479;SDS011;55469;48.934;12.050;2022-10-16T08:27:51;0.80;;;0.80;;
68479;SDS011;55469;48.934;12.050;2022-10-16T08:30:17;0.90;;;0.90;;
68479;SDS011;55469;48.934;12.050;2022-10-16T08:32:44;0.90;;;0.90;;
68479;SDS011;55469;48.934;12.050;2022-10-16T08:35:11;0.80;;;0.80;;
68479;SDS011;55469;48.934;12.050;2022-10-16T08:37:38;0.90;;;0.90;;
68479;SDS011;55469;48.934;12.050;2022-10-16T08:40:05;1.00;;;0.90;;
68479;SDS011;55469;48.934;12.050;2022-10-16T08:43:19;0.90;;;0.90;;
68479;SDS011;55469;48.934;12.050;2022-10-16T08:48:56;1.00;;;0.90;;
68479;SDS011;55469;48.934;12.050;2022-10-16T08:51:26;0.77;;;0.77;;
68479;SDS011;55469;48.934;12.050;2022-10-16T08:53:58;0.87;;;0.87;;
68479;SDS011;55469;48.934;12.050;2022-10-16T08:56:28;1.00;;;0.85;;
68479;SDS011;55469;48.934;12.050;2022-10-16T08:58:54;0.90;;;0.90;;
68479;SDS011;55469;48.934;12.050;2022-10-16T09:01:23;0.77;;;0.77;;
68479;SDS011;55469;48.934;12.050;2022-10-16T09:04:34;0.80;;;0.80;;
68479;SDS011;55469;48.934;12.050;2022-10-16T09:10:59;1.05;;;0.80;;
68479;SDS011;55469;48.934;12.050;2022-10-16T09:13:52;0.90;;;0.90;;
68479;SDS011;55469;48.934;12.050;2022-10-16T09:16:46;0.95;;;0.95;;
68479;SDS011;55469;48.934;12.050;2022-10-16T09:19:37;0.98;;;0.98;;
68479;SDS011;55469;48.934;12.050;2022-10-16T09:22:13;0.85;;;0.85;;
68479;SDS011;55469;48.934;12.050;2022-10-16T09:24:41;0.80;;;0.80;;
68479;SDS011;55469;48.934;12.050;2022-10-16T09:27:14;1.15;;;1.10;;
68479;SDS011;55469;48.934;12.050;2022-10-16T09:29:40;1.08;;;0.98;;
68479;SDS011;55469;48.934;12.050;2022-10-16T09:32:13;1.00;;;1.00;;
68479;SDS011;55469;48.934;12.050;2022-10-16T09:34:53;0.90;;;0.90;;
68479;SDS011;55469;48.934;12.050;2022-10-16T09:37:23;0.95;;;0.95;;
68479;SDS011;55469;48.934;12.050;2022-10-16T09:39:52;1.10;;;1.00;;
68479;SDS011;55469;48.934;12.050;2022-10-16T09:42:20;0.95;;;0.95;;
68479;SDS011;55469;48.934;12.050;2022-10-16T09:44:58;0.90;;;0.90;;
68479;SDS011;55469;48.934;12.050;2022-10-16T09:47:25;0.95;;;0.93;;
68479;SDS011;55469;48.934;12.050;2022-10-16T09:49:54;1.10;;;1.00;;
68479;SDS011;55469;48.934;12.050;2022-10-16T09:52:31;0.75;;;0.75;;
68479;SDS011;55469;48.934;12.050;2022-10-16T09:55:02;0.90;;;0.90;;
68479;SDS011;55469;48.934;12.050;2022-10-16T09:57:49;1.10;;;1.00;;
68479;SDS011;55469;48.934;12.050;2022-10-16T10:00:19;1.05;;;0.95;;
68479;SDS011;55469;48.934;12.050;2022-10-16T10:02:47;1.17;;;0.90;;
68479;SDS011;55469;48.934;12.050;2022-10-16T10:05:24;0.93;;;0.88;;
68479;SDS011;55469;48.934;12.050;2022-10-16T10:07:56;0.90;;;0.90;;
68479;SDS011;55469;48.934;12.050;2022-10-16T10:10:34;1.00;;;1.00;;
68479;SDS011;55469;48.934;12.050;2022-10-16T10:13:16;0.93;;;0.90;;
68479;SDS011;55469;48.934;12.050;2022-10-16T10:15:47;1.15;;;1.00;;
68479;SDS011;55469;48.934;12.050;2022-10-16T10:18:17;1.08;;;1.00;;
68479;SDS011;55469;48.934;12.050;2022-10-16T10:20:46;0.82;;;0.82;;
68479;SDS011;55469;48.934;12.050;2022-10-16T10:23:27;0.90;;;0.90;;
68479;SDS011;55469;48.934;12.050;2022-10-16T10:46:09;1.42;;;0.80;;
68479;SDS011;55469;48.934;12.050;2022-10-16T10:51:52;1.67;;;0.90;;
68479;SDS011;55469;48.934;12.050;2022-10-16T11:06:30;1.10;;;1.00;;
68479;SDS011;55469;48.934;12.050;2022-10-16T11:09:15;1.00;;;1.00;;
68479;SDS011;55469;48.934;12.050;2022-10-16T11:11:51;1.10;;;1.00;;
68479;SDS011;55469;48.934;12.050;2022-10-16T11:14:28;0.82;;;0.82;;
68479;SDS011;55469;48.934;12.050;2022-10-16T11:20:13;1.35;;;1.00;;
68479;SDS011;55469;48.934;12.050;2022-10-16T11:22:59;1.10;;;0.98;;
68479;SDS011;55469;48.934;12.050;2022-10-16T11:25:48;1.00;;;0.90;;
68479;SDS011;55469;48.934;12.050;2022-10-16T11:28:20;1.00;;;0.90;;
68479;SDS011;55469;48.934;12.050;2022-10-16T11:30:59;0.88;;;0.88;;
68479;SDS011;55469;48.934;12.050;2022-10-16T11:36:38;0.85;;;0.85;;
68479;SDS011;55469;48.934;12.050;2022-10-16T11:44:27;1.13;;;1.02;;
68479;SDS011;55469;48.934;12.050;2022-10-16T11:50:22;0.90;;;0.90;;
68479;SDS011;55469;48.934;12.050;2022-10-16T11:53:27;1.10;;;1.00;;
68479;SDS011;55469;48.934;12.050;2022-10-16T11:56:04;0.90;;;0.90;;
68479;SDS011;55469;48.934;12.050;2022-10-16T11:58:35;1.00;;;0.90;;
68479;SDS011;55469;48.934;12.050;2022-10-16T12:01:24;1.08;;;0.98;;
68479;SDS011;55469;48.934;12.050;2022-10-16T12:09:33;1.55;;;1.10;;
68479;SDS011;55469;48.934;12.050;2022-10-16T12:12:03;1.00;;;0.85;;
68479;SDS011;55469;48.934;12.050;2022-10-16T12:17:22;1.40;;;1.20;;
68479;SDS011;55469;48.934;12.050;2022-10-16T12:20:12;1.20;;;1.10;;
68479;SDS011;55469;48.934;12.050;2022-10-16T12:23:06;1.10;;;0.85;;
68479;SDS011;55469;48.934;12.050;2022-10-16T12:25:53;1.20;;;1.10;;
68479;SDS011;55469;48.934;12.050;2022-10-16T12:28:21;1.00;;;0.98;;
68479;SDS011;55469;48.934;12.050;2022-10-16T12:30:53;0.90;;;0.90;;
68479;SDS011;55469;48.934;12.050;2022-10-16T12:33:27;1.00;;;0.90;;
68479;SDS011;55469;48.934;12.050;2022-10-16T12:35:55;1.10;;;1.00;;
68479;SDS011;55469;48.934;12.050;2022-10-16T12:38:26;1.00;;;0.90;;
68479;SDS011;55469;48.934;12.050;2022-10-16T12:41:23;1.55;;;1.00;;
68479;SDS011;55469;48.934;12.050;2022-10-16T12:43:51;1.20;;;1.02;;
68479;SDS011;55469;48.934;12.050;2022-10-16T12:48:43;0.90;;;0.90;;
68479;SDS011;55469;48.934;12.050;2022-10-16T12:51:11;1.48;;;1.00;;
68479;SDS011;55469;48.934;12.050;2022-10-16T12:54:04;0.90;;;0.90;;
68479;SDS011;55469;48.934;12.050;2022-10-16T13:13:54;0.80;;;0.80;;
68479;SDS011;55469;48.934;12.050;2022-10-16T13:16:58;1.17;;;0.90;;
68479;SDS011;55469;48.934;12.050;2022-10-16T13:23:37;1.20;;;1.10;;
68479;SDS011;55469;48.934;12.050;2022-10-16T13:26:26;1.10;;;1.00;;
68479;SDS011;55469;48.934;12.050;2022-10-16T13:29:09;1.08;;;1.00;;
68479;SDS011;55469;48.934;12.050;2022-10-16T13:31:37;0.90;;;0.90;;
68479;SDS011;55469;48.934;12.050;2022-10-16T13:34:04;1.25;;;0.88;;
68479;SDS011;55469;48.934;12.050;2022-10-16T13:36:35;1.10;;;1.00;;
68479;SDS011;55469;48.934;12.050;2022-10-16T13:44:35;0.90;;;0.90;;
68479;SDS011;55469;48.934;12.050;2022-10-16T13:47:11;1.00;;;1.00;;
68479;SDS011;55469;48.934;12.050;2022-10-16T13:49:42;0.95;;;0.95;;
68479;SDS011;55469;48.934;12.050;2022-10-16T13:52:16;0.90;;;0.90;;
68479;SDS011;55469;48.934;12.050;2022-10-16T13:54:45;0.88;;;0.88;;
68479;SDS011;55469;48.934;12.050;2022-10-16T13:57:15;1.00;;;1.00;;
68479;SDS011;55469;48.934;12.050;2022-10-16T13:59:42;0.80;;;0.80;;
68479;SDS011;55469;48.934;12.050;2022-10-16T14:02:15;1.27;;;0.95;;
68479;SDS011;55469;48.934;12.050;2022-10-16T14:05:22;0.75;;;0.75;;
68479;SDS011;55469;48.934;12.050;2022-10-16T14:07:49;1.00;;;1.00;;
68479;SDS011;55469;48.934;12.050;2022-10-16T14:10:29;0.90;;;0.90;;
68479;SDS011;55469;48.934;12.050;2022-10-16T14:13:00;0.70;;;0.70;;
68479;SDS011;55469;48.934;12.050;2022-10-16T14:15:30;1.48;;;0.80;;
68479;SDS011;55469;48.934;12.050;2022-10-16T14:17:59;1.00;;;0.93;;
68479;SDS011;55469;48.934;12.050;2022-10-16T14:20:27;1.60;;;1.00;;
68479;SDS011;55469;48.934;12.050;2022-10-16T14:23:01;1.00;;;1.00;;
68479;SDS011;55469;48.934;12.050;2022-10-16T14:25:31;1.38;;;1.00;;
68479;SDS011;55469;48.934;12.050;2022-10-16T14:27:58;0.90;;;0.90;;
68479;SDS011;55469;48.934;12.050;2022-10-16T14:30:48;0.90;;;0.90;;
68479;SDS011;55469;48.934;12.050;2022-10-16T14:38:36;1.08;;;0.98;;
68479;SDS011;55469;48.934;12.050;2022-10-16T14:41:03;0.85;;;0.85;;
68479;SDS011;55469;48.934;12.050;2022-10-16T14:46:01;0.90;;;0.90;;
68479;SDS011;55469;48.934;12.050;2022-10-16T14:48:29;1.55;;;0.90;;
68479;SDS011;55469;48.934;12.050;2022-10-16T14:50:55;1.15;;;1.00;;
68479;SDS011;55469;48.934;12.050;2022-10-16T14:53:21;0.85;;;0.85;;
68479;SDS011;55469;48.934;12.050;2022-10-16T14:55:46;0.82;;;0.82;;
68479;SDS011;55469;48.934;12.050;2022-10-16T14:58:18;0.88;;;0.88;;
68479;SDS011;55469;48.934;12.050;2022-10-16T15:00:46;0.90;;;0.90;;
68479;SDS011;55469;48.934;12.050;2022-10-16T15:03:13;1.50;;;1.00;;
68479;SDS011;55469;48.934;12.050;2022-10-16T15:05:38;0.90;;;0.90;;
68479;SDS011;55469;48.934;12.050;2022-10-16T15:08:04;1.33;;;0.65;;
68479;SDS011;55469;48.934;12.050;2022-10-16T15:10:31;1.30;;;0.93;;
68479;SDS011;55469;48.934;12.050;2022-10-16T15:13:03;1.00;;;1.00;;
68479;SDS011;55469;48.934;12.050;2022-10-16T15:15:33;1.42;;;0.98;;
68479;SDS011;55469;48.934;12.050;2022-10-16T15:18:02;0.90;;;0.90;;
68479;SDS011;55469;48.934;12.050;2022-10-16T15:20:36;0.90;;;0.90;;
68479;SDS011;55469;48.934;12.050;2022-10-16T15:25:47;0.82;;;0.82;;
68479;SDS011;55469;48.934;12.050;2022-10-16T15:28:16;0.90;;;0.90;;
68479;SDS011;55469;48.934;12.050;2022-10-16T15:30:43;0.80;;;0.80;;
68479;SDS011;55469;48.934;12.050;2022-10-16T15:33:14;0.90;;;0.90;;
68479;SDS011;55469;48.934;12.050;2022-10-16T15:35:44;1.00;;;0.90;;
68479;SDS011;55469;48.934;12.050;2022-10-16T15:38:13;0.93;;;0.93;;
68479;SDS011;55469;48.934;12.050;2022-10-16T15:40:40;0.95;;;0.95;;
68479;SDS011;55469;48.934;12.050;2022-10-16T15:43:06;0.82;;;0.82;;
68479;SDS011;55469;48.934;12.050;2022-10-16T15:45:33;1.00;;;1.00;;
68479;SDS011;55469;48.934;12.050;2022-10-16T15:47:59;0.80;;;0.80;;
68479;SDS011;55469;48.934;12.050;2022-10-16T15:50:25;0.90;;;0.90;;
68479;SDS011;55469;48.934;12.050;2022-10-16T15:52:51;0.88;;;0.85;;
68479;SDS011;55469;48.934;12.050;2022-10-16T15:55:17;0.90;;;0.90;;
68479;SDS011;55469;48.934;12.050;2022-10-16T15:57:43;0.90;;;0.90;;
68479;SDS011;55469;48.934;12.050;2022-10-16T16:00:12;0.90;;;0.90;;
68479;SDS011;55469;48.934;12.050;2022-10-16T16:02:41;1.15;;;1.05;;
68479;SDS011;55469;48.934;12.050;2022-10-16T16:05:07;1.58;;;0.95;;
68479;SDS011;55469;48.934;12.050;2022-10-16T16:07:35;1.00;;;0.90;;
68479;SDS011;55469;48.934;12.050;2022-10-16T16:10:03;0.82;;;0.82;;
68479;SDS011;55469;48.934;12.050;2022-10-16T16:12:31;0.90;;;0.90;;
68479;SDS011;55469;48.934;12.050;2022-10-16T16:14:57;0.90;;;0.90;;
68479;SDS011;55469;48.934;12.050;2022-10-16T16:17:23;1.08;;;0.98;;
68479;SDS011;55469;48.934;12.050;2022-10-16T16:19:49;1.65;;;0.90;;
68479;SDS011;55469;48.934;12.050;2022-10-16T16:22:15;1.08;;;0.98;;
68479;SDS011;55469;48.934;12.050;2022-10-16T16:24:42;0.90;;;0.90;;
68479;SDS011;55469;48.934;12.050;2022-10-16T16:27:08;1.15;;;1.05;;
68479;SDS011;55469;48.934;12.050;2022-10-16T16:29:33;0.90;;;0.90;;
68479;SDS011;55469;48.934;12.050;2022-10-16T16:32:00;0.90;;;0.90;;
68479;SDS011;55469;48.934;12.050;2022-10-16T16:34:26;0.80;;;0.80;;
68479;SDS011;55469;48.934;12.050;2022-10-16T16:36:53;1.10;;;1.00;;
68479;SDS011;55469;48.934;12.050;2022-10-16T16:39:20;1.10;;;1.00;;
68479;SDS011;55469;48.934;12.050;2022-10-16T16:41:46;1.02;;;0.98;;
68479;SDS011;55469;48.934;12.050;2022-10-16T16:44:12;1.02;;;0.95;;
68479;SDS011;55469;48.934;12.050;2022-10-16T16:46:39;1.08;;;0.98;;
68479;SDS011;55469;48.934;12.050;2022-10-16T16:49:08;1.10;;;1.00;;
68479;SDS011;55469;48.934;12.050;2022-10-16T16:51:39;0.90;;;0.90;;
68479;SDS011;55469;48.934;12.050;2022-10-16T16:54:05;1.20;;;1.10;;
68479;SDS011;55469;48.934;12.050;2022-10-16T16:56:32;1.15;;;1.00;;
68479;SDS011;55469;48.934;12.050;2022-10-16T16:58:58;0.95;;;0.95;;
68479;SDS011;55469;48.934;12.050;2022-10-16T17:01:25;1.30;;;1.20;;
68479;SDS011;55469;48.934;12.050;2022-10-16T17:03:54;1.00;;;1.00;;
68479;SDS011;55469;48.934;12.050;2022-10-16T17:06:25;1.30;;;1.20;;
68479;SDS011;55469;48.934;12.050;2022-10-16T17:08:54;0.95;;;0.95;;
68479;SDS011;55469;48.934;12.050;2022-10-16T17:11:21;1.30;;;1.20;;